Terminal Aerodrome Forecast
Issued by NWS

Home | Current Version | Previous Version | Text Only | Print | Product List | Glossary On
Versions: 1 2 3 4 5 6 7 8 9 10 11 12 13 14 15 16 17 18 19 20 21 22 23 24 25 26 27 28 29 30 31 32 33 34 35 36 37 38
000
FTUS46 KEKA 302000 AAB
TAFACV
TAF AMD
KACV 302000Z 3020/3118 25007KT P6SM SCT004
     FM302200 29007KT P6SM SKC
     FM310300 17004KT 3SM BR BKN004
     FM311000 00000KT 1/2SM FG OVC002=

USA.gov is the U.S. government's official web portal to all federal, state and local government web resources and services.